KLEX

Blue Grass Airport

Lexington, Kentucky, USA
METAR KLEX 240754Z 09007KT 10SM CLR 18/13 A3016 RMK AO2 SLP203 T01830133 $
Observed Flight Rules
May-24 @ 07:54 UTC (17 minutes ago) Visual Flight Rules
Wind Visibility Clouds
90° at 7 knots 10 miles
  • Clear skies
Temperatures Readings
Current 18°C / 64°F
Dewpoint 13°C / 55°F
Humidity 73%
Altimeter 30.16" Hg
Pressure 1020.3 hPa
Elevation 300
METAR KLEX 240754Z 09007KT 10SM CLR 18/13 A3016 RMK AO2 SLP203 T01830133 $
Observed Flight Rules
May-24 @ 07:54 UTC
(17 minutes ago)
VFR
Wind Visibility
90° at 7 knots 10 miles
Clouds
  • Clear skies
Temperature Dewpoint
18°C / 64°F 13°C / 55°F
Humidity Altimeter Pressure
73% 30.16" Hg 1020.3 hPa